Time;durP1;ratioP1;P1;durP2;ratioP2;P2;SDS_P1;SDS_P2;PMS_P1;PMS_P2;Temp;Humidity;BMP_temperature;BMP_pressure;BME280_temperature;BME280_humidity;BME280_pressure;Samples;Min_cycle;Max_cycle;Signal;HPM_P1;HPM_P2
2022/08/07 00:00:26;;;;;;;6.65;2.30;;;;;;;;;;5032881;28;20513;-70
2022/08/07 00:02:54;;;;;;;3.70;2.60;;;;;;;;;;5032735;28;20066;-69
2022/08/07 00:05:21;;;;;;;5.38;2.58;;;;;;;;;;5032460;28;20435;-69
2022/08/07 00:07:47;;;;;;;5.18;1.95;;;;;;;;;;5032690;28;20078;-70
2022/08/07 00:10:13;;;;;;;4.88;2.53;;;24.80;96.80;;;;;;5032345;28;20385;-69
2022/08/07 00:12:40;;;;;;;4.53;2.30;;;24.60;93.40;;;;;;5032882;28;20022;-69
2022/08/07 00:15:06;;;;;;;2.97;2.15;;;24.60;93.50;;;;;;5031067;28;20033;-68
2022/08/07 00:17:32;;;;;;;6.32;2.67;;;24.60;93.40;;;;;;5032538;28;20540;-66
2022/08/07 00:19:58;;;;;;;4.45;2.00;;;24.50;93.50;;;;;;5032456;28;20036;-68
2022/08/07 00:22:23;;;;;;;4.05;2.38;;;24.50;93.60;;;;;;5032474;28;20128;-66
2022/08/07 00:24:49;;;;;;;5.95;2.65;;;;;;;;;;5032413;28;20025;-68
2022/08/07 00:27:16;;;;;;;4.15;2.08;;;24.40;93.50;;;;;;5031929;28;20124;-69
2022/08/07 00:29:42;;;;;;;10.32;2.28;;;24.30;94.10;;;;;;5032050;28;20441;-68
2022/08/07 00:32:10;;;;;;;5.72;1.95;;;24.30;94.10;;;;;;5031075;28;20043;-68
2022/08/07 00:34:36;;;;;;;5.88;2.40;;;24.30;94.20;;;;;;5032299;28;20054;-66
2022/08/07 00:37:03;;;;;;;4.15;2.00;;;;;;;;;;5032217;28;20102;-68
2022/08/07 00:39:29;;;;;;;6.53;2.20;;;;;;;;;;5030868;28;20030;-66
2022/08/07 00:41:56;;;;;;;3.28;2.47;;;;;;;;;;5030908;28;20040;-69
2022/08/07 00:44:23;;;;;;;3.17;1.95;;;;;;;;;;5032138;28;20458;-69
2022/08/07 00:46:49;;;;;;;6.13;2.10;;;;;;;;;;5032100;28;20060;-69
2022/08/07 00:49:16;;;;;;;4.50;2.17;;;;;;;;;;5032034;28;20485;-68
2022/08/07 00:51:42;;;;;;;3.53;2.00;;;;;;;;;;5030803;28;20025;-66
2022/08/07 00:54:08;;;;;;;4.50;1.70;;;;;;;;;;5032265;28;20070;-66
2022/08/07 00:56:35;;;;;;;3.95;1.65;;;;;;;;;;5031915;28;20097;-72
2022/08/07 00:59:02;;;;;;;1.73;1.33;;;;;;;;;;5030537;28;20416;-70
2022/08/07 01:01:28;;;;;;;2.58;1.42;;;24.30;94.30;;;;;;5031947;28;20022;-68
2022/08/07 01:03:54;;;;;;;1.25;1.08;;;23.70;97.50;;;;;;5031495;28;20017;-68
2022/08/07 01:06:20;;;;;;;3.13;1.67;;;23.70;97.80;;;;;;5031849;28;20028;-67
2022/08/07 01:08:46;;;;;;;4.00;1.23;;;23.60;98.30;;;;;;5031776;28;20033;-67
2022/08/07 01:11:13;;;;;;;1.40;1.00;;;23.50;98.60;;;;;;5030536;28;20033;-68
2022/08/07 01:13:40;;;;;;;3.63;1.73;;;23.50;98.90;;;;;;5031689;28;20021;-67
2022/08/07 01:16:07;;;;;;;2.80;1.20;;;23.40;99.10;;;;;;5031665;28;20081;-67
2022/08/07 01:18:33;;;;;;;9.32;1.30;;;23.40;99.50;;;;;;5031470;28;20085;-69
2022/08/07 01:21:14;;;;;;;6.38;1.25;;;23.30;99.70;;;;;;5029716;28;20447;-68
2022/08/07 01:23:42;;;;;;;6.53;1.50;;;23.20;99.90;;;;;;5031508;28;20018;-69
2022/08/07 01:26:08;;;;;;;3.20;1.20;;;;;;;;;;5031171;28;20170;-66
2022/08/07 01:28:35;;;;;;;2.35;1.13;;;23.20;99.90;;;;;;5031473;28;20154;-68
2022/08/07 01:31:02;;;;;;;2.80;0.90;;;23.10;99.90;;;;;;5031472;28;20033;-68
2022/08/07 01:33:29;;;;;;;2.45;1.02;;;23.00;99.90;;;;;;5031378;28;20053;-68
2022/08/07 01:35:56;;;;;;;1.15;0.77;;;23.00;99.90;;;;;;5031348;28;20469;-67
2022/08/07 01:38:23;;;;;;;1.08;1.00;;;22.90;99.90;;;;;;5029863;28;20033;-66
2022/08/07 01:40:50;;;;;;;1.35;0.80;;;22.80;99.90;;;;;;5031319;28;20025;-69
2022/08/07 01:43:16;;;;;;;3.97;0.90;;;22.80;99.90;;;;;;5031249;28;20021;-70
2022/08/07 01:45:42;;;;;;;0.90;0.90;;;22.80;99.90;;;;;;5031422;28;20381;-69
2022/08/07 01:48:08;;;;;;;6.35;1.20;;;;;;;;;;5031141;28;20029;-68
2022/08/07 01:50:38;;;;;;;4.75;1.08;;;;;;;;;;5031167;28;20053;-68
2022/08/07 01:53:06;;;;;;;3.53;1.10;;;22.70;99.90;;;;;;5029821;28;20112;-71
2022/08/07 01:55:38;;;;;;;6.40;0.93;;;22.60;99.90;;;;;;5031057;28;20040;-68
2022/08/07 01:58:09;;;;;;;1.95;1.38;;;22.50;99.90;;;;;;5030974;28;20018;-71
2022/08/07 02:00:36;;;;;;;12.35;1.25;;;22.50;99.90;;;;;;5031007;28;20022;-68
2022/08/07 02:03:06;;;;;;;4.15;0.95;;;;;;;;;;5030920;28;20476;-68
2022/08/07 02:05:34;;;;;;;2.05;1.00;;;;;;;;;;5030941;28;20052;-67
2022/08/07 02:08:04;;;;;;;3.17;0.90;;;22.50;99.90;;;;;;5030828;28;20064;-70
2022/08/07 02:10:32;;;;;;;1.33;1.10;;;22.30;99.90;;;;;;5030903;28;20033;-71
2022/08/07 02:13:00;;;;;;;4.10;2.15;;;22.30;99.90;;;;;;5029525;28;20124;-71
2022/08/07 02:15:28;;;;;;;3.42;1.00;;;22.20;99.90;;;;;;5030797;28;20442;-71
2022/08/07 02:17:56;;;;;;;2.22;0.98;;;22.20;99.90;;;;;;5029387;28;20029;-71
2022/08/07 02:20:23;;;;;;;7.70;1.50;;;22.20;99.90;;;;;;5029332;28;20101;-70
2022/08/07 02:23:00;;;;;;;1.05;0.90;;;22.10;99.90;;;;;;5030698;28;20013;-68
2022/08/07 02:25:28;;;;;;;3.67;1.45;;;22.00;99.90;;;;;;5030462;28;20029;-69
2022/08/07 02:27:55;;;;;;;2.28;1.17;;;22.00;99.90;;;;;;5030603;28;20109;-71
2022/08/07 02:30:22;;;;;;;3.10;1.23;;;21.90;99.90;;;;;;5030562;28;20094;-66
2022/08/07 02:32:49;;;;;;;0.95;0.95;;;21.90;99.90;;;;;;5029764;28;20018;-70
2022/08/07 02:35:18;;;;;;;4.82;1.55;;;21.90;99.90;;;;;;5030213;28;20062;-68
2022/08/07 02:37:45;;;;;;;4.43;1.30;;;21.80;99.90;;;;;;5030401;28;20036;-68
2022/08/07 02:40:12;;;;;;;1.15;0.93;;;21.80;99.90;;;;;;5030381;28;20037;-68
2022/08/07 02:42:38;;;;;;;5.43;1.15;;;21.70;99.90;;;;;;5030453;28;20048;-67
2022/08/07 02:45:08;;;;;;;4.57;1.45;;;21.70;99.90;;;;;;5030323;28;20464;-70
2022/08/07 02:47:33;;;;;;;4.93;2.17;;;21.70;99.90;;;;;;5028914;28;20032;-68
2022/08/07 02:49:59;;;;;;;3.70;1.30;;;21.70;99.90;;;;;;5030261;28;20034;-68
2022/08/07 02:52:33;;;;;;;1.40;1.27;;;21.60;99.90;;;;;;5029991;28;20480;-69
2022/08/07 02:55:06;;;;;;;3.92;1.42;;;21.60;99.90;;;;;;5030275;28;20025;-69
2022/08/07 02:57:35;;;;;;;2.70;1.33;;;21.60;99.90;;;;;;5030222;28;20074;-68
2022/08/07 03:00:04;;;;;;;1.90;1.10;;;21.70;99.90;;;;;;5030104;28;20044;-70
2022/08/07 03:02:30;;;;;;;3.03;1.30;;;21.60;99.90;;;;;;5028834;28;20029;-68
2022/08/07 03:04:59;;;;;;;3.28;1.50;;;21.50;99.90;;;;;;5030125;28;20022;-67
2022/08/07 03:07:25;;;;;;;1.40;1.30;;;21.50;99.90;;;;;;5029737;28;20385;-67
2022/08/07 03:09:52;;;;;;;2.72;1.40;;;21.50;99.90;;;;;;5028744;28;20033;-68
2022/08/07 03:12:19;;;;;;;2.65;1.40;;;21.50;99.90;;;;;;5030047;28;20358;-69
2022/08/07 03:14:45;;;;;;;3.17;1.35;;;21.50;99.90;;;;;;5028662;28;20028;-69
2022/08/07 03:17:11;;;;;;;3.70;1.23;;;21.40;99.90;;;;;;5030020;28;20025;-69
2022/08/07 03:19:38;;;;;;;1.45;1.35;;;21.40;99.90;;;;;;5029810;28;20365;-68
2022/08/07 03:22:07;;;;;;;7.90;1.70;;;21.40;99.90;;;;;;5030202;28;20031;-68
2022/08/07 03:24:35;;;;;;;2.78;1.45;;;21.40;99.90;;;;;;5029855;28;20013;-68
2022/08/07 03:27:03;;;;;;;1.45;1.38;;;21.30;99.90;;;;;;5029274;28;20053;-69
2022/08/07 03:29:38;;;;;;;4.85;1.40;;;21.30;99.90;;;;;;5028527;28;20029;-70
2022/08/07 03:32:06;;;;;;;1.50;1.40;;;21.30;99.90;;;;;;5028540;28;20116;-69
2022/08/07 03:34:35;;;;;;;2.90;1.20;;;21.30;99.90;;;;;;5029698;28;20121;-66
2022/08/07 03:37:02;;;;;;;1.85;1.40;;;21.30;99.90;;;;;;5029745;28;20022;-67
2022/08/07 03:39:32;;;;;;;2.70;1.50;;;21.30;99.90;;;;;;5029588;28;20033;-69
2022/08/07 03:41:59;;;;;;;2.40;1.52;;;21.30;99.90;;;;;;5028414;28;20025;-69
2022/08/07 03:44:26;;;;;;;6.30;1.60;;;21.20;99.90;;;;;;5029579;28;20108;-69
2022/08/07 03:46:52;;;;;;;4.20;1.52;;;21.20;99.90;;;;;;5032813;28;20526;-68
2022/08/07 03:49:18;;;;;;;4.22;1.83;;;21.20;99.90;;;;;;5033284;28;20117;-69
2022/08/07 03:51:44;;;;;;;3.15;1.48;;;;;;;;;;5033054;28;20032;-69
2022/08/07 03:54:10;;;;;;;1.95;1.45;;;21.20;99.90;;;;;;5032939;28;20014;-70
2022/08/07 03:56:39;;;;;;;3.33;1.73;;;21.20;99.90;;;;;;5032853;28;20021;-66
2022/08/07 03:59:05;;;;;;;2.05;1.95;;;21.10;99.90;;;;;;5031498;28;20025;-70
2022/08/07 04:01:34;;;;;;;2.00;1.65;;;21.20;99.90;;;;;;5033093;28;20105;-68
2022/08/07 04:04:00;;;;;;;5.88;2.33;;;21.10;99.90;;;;;;5032780;28;20104;-68
2022/08/07 04:06:26;;;;;;;4.60;2.42;;;21.10;99.90;;;;;;5032741;28;20104;-67
2022/08/07 04:08:52;;;;;;;7.88;2.10;;;21.10;99.90;;;;;;5032696;28;20080;-67
2022/08/07 04:11:19;;;;;;;2.78;1.58;;;21.20;99.90;;;;;;5032438;28;20506;-69
2022/08/07 04:13:46;;;;;;;5.43;2.55;;;21.10;99.90;;;;;;5032364;28;20343;-69
2022/08/07 04:16:12;;;;;;;3.75;2.10;;;21.10;99.90;;;;;;5032559;28;20365;-68
2022/08/07 04:18:38;;;;;;;5.75;1.75;;;21.20;99.90;;;;;;5030956;28;20029;-67
2022/08/07 04:21:04;;;;;;;1.55;1.40;;;21.10;99.90;;;;;;5032203;28;20064;-69
2022/08/07 04:23:32;;;;;;;2.95;1.85;;;21.10;99.90;;;;;;5032527;28;20018;-67
2022/08/07 04:25:58;;;;;;;6.15;1.70;;;21.10;99.90;;;;;;5030748;28;20041;-68
2022/08/07 04:28:24;;;;;;;3.75;2.33;;;21.20;99.90;;;;;;5032396;28;20434;-67
2022/08/07 04:30:50;;;;;;;2.25;1.63;;;21.20;99.90;;;;;;5032364;28;20063;-67
2022/08/07 04:33:17;;;;;;;4.55;1.67;;;21.20;99.90;;;;;;5032393;28;20029;-67
2022/08/07 04:35:46;;;;;;;2.92;1.77;;;21.20;99.90;;;;;;5032232;28;20060;-68
2022/08/07 04:38:13;;;;;;;3.25;1.88;;;21.20;99.90;;;;;;5032195;28;20096;-67
2022/08/07 04:40:41;;;;;;;5.43;1.90;;;21.20;99.90;;;;;;5032200;28;20014;-69
2022/08/07 04:43:07;;;;;;;3.95;2.03;;;21.30;99.90;;;;;;5032259;28;20025;-68
2022/08/07 04:46:03;;;;;;;3.78;1.70;;;21.30;99.90;;;;;;5030841;28;20503;-69
2022/08/07 04:48:56;;;;;;;7.88;2.00;;;21.30;99.90;;;;;;5019865;28;20032;-69
2022/08/07 04:51:30;;;;;;;4.05;2.10;;;21.40;99.90;;;;;;5032024;28;20022;-70
2022/08/07 04:54:14;;;;;;;5.18;1.75;;;21.40;99.90;;;;;;5030780;28;20110;-67
2022/08/07 04:56:40;;;;;;;3.85;2.08;;;21.40;99.90;;;;;;5031075;28;20028;-70
2022/08/07 04:59:29;;;;;;;3.05;1.70;;;21.40;99.90;;;;;;5031821;28;20055;-68
2022/08/07 05:02:03;;;;;;;2.30;1.90;;;21.40;99.90;;;;;;5030580;28;20045;-67
2022/08/07 05:05:03;;;;;;;5.60;2.20;;;21.40;99.90;;;;;;5031582;28;20366;-69
2022/08/07 05:07:39;;;;;;;4.15;1.88;;;21.40;99.90;;;;;;5030567;28;20029;-66
2022/08/07 05:10:15;;;;;;;3.60;2.15;;;21.40;99.90;;;;;;5031828;28;20365;-66
2022/08/07 05:12:53;;;;;;;2.63;2.10;;;21.40;99.90;;;;;;5030453;28;20050;-66
2022/08/07 05:15:41;;;;;;;3.95;2.20;;;21.40;99.90;;;;;;5031773;28;20021;-66
2022/08/07 05:18:15;;;;;;;10.15;2.38;;;21.40;99.90;;;;;;5031903;28;20025;-65
2022/08/07 05:20:45;;;;;;;5.97;2.55;;;21.40;99.90;;;;;;5030387;28;20376;-66
2022/08/07 05:23:26;;;;;;;18.58;2.67;;;21.40;99.90;;;;;;5031642;28;20021;-66
2022/08/07 05:25:53;;;;;;;4.50;2.33;;;21.50;99.90;;;;;;5030237;28;20393;-67
2022/08/07 05:28:20;;;;;;;8.40;2.45;;;21.60;99.90;;;;;;5031436;28;20105;-67
2022/08/07 05:30:46;;;;;;;2.67;2.20;;;21.70;99.90;;;;;;5031417;28;20104;-66
2022/08/07 05:33:13;;;;;;;2.80;2.25;;;21.80;99.90;;;;;;5031447;28;20097;-67
2022/08/07 05:35:41;;;;;;;5.07;2.13;;;22.00;99.90;;;;;;5030145;28;20364;-65
2022/08/07 05:38:09;;;;;;;10.05;2.63;;;22.10;99.90;;;;;;5031364;28;20045;-69
2022/08/07 05:40:37;;;;;;;4.65;2.28;;;22.20;99.90;;;;;;5031202;28;20037;-66
2022/08/07 05:43:03;;;;;;;5.30;2.10;;;22.10;99.90;;;;;;5031322;28;20051;-66
2022/08/07 05:45:30;;;;;;;5.07;2.10;;;22.10;99.90;;;;;;5031232;28;20120;-67
2022/08/07 05:47:57;;;;;;;3.58;2.00;;;22.10;99.90;;;;;;5031204;28;20021;-68
2022/08/07 05:50:23;;;;;;;5.20;2.42;;;22.20;99.90;;;;;;5031107;28;20582;-65
2022/08/07 05:52:49;;;;;;;4.28;2.13;;;22.20;99.90;;;;;;5031190;28;20095;-69
2022/08/07 05:55:15;;;;;;;3.08;1.90;;;22.10;99.90;;;;;;5031087;28;20022;-66
2022/08/07 05:57:42;;;;;;;4.07;2.08;;;22.20;99.90;;;;;;5029702;28;20467;-66
2022/08/07 06:00:10;;;;;;;2.95;1.98;;;22.20;99.90;;;;;;5030957;28;20036;-69
2022/08/07 06:02:38;;;;;;;8.82;2.25;;;22.20;99.90;;;;;;5030952;28;20070;-70
2022/08/07 06:05:10;;;;;;;5.07;2.42;;;22.20;99.90;;;;;;5030909;28;20026;-69
2022/08/07 06:07:36;;;;;;;2.45;2.25;;;22.30;99.90;;;;;;5029476;28;20052;-68
2022/08/07 06:10:03;;;;;;;2.67;2.47;;;22.30;99.90;;;;;;5030824;28;20057;-66
2022/08/07 06:12:29;;;;;;;4.32;2.40;;;22.30;99.90;;;;;;5031082;28;20013;-66
2022/08/07 06:14:57;;;;;;;4.05;2.38;;;22.40;99.90;;;;;;5029480;28;20110;-68
2022/08/07 06:17:23;;;;;;;2.70;2.50;;;22.50;99.90;;;;;;5030703;28;20029;-67
2022/08/07 06:19:50;;;;;;;2.85;1.85;;;22.50;99.90;;;;;;5030663;28;20108;-68
2022/08/07 06:22:18;;;;;;;3.47;2.65;;;;;;;;;;5030638;28;20017;-67
2022/08/07 06:24:44;;;;;;;5.82;2.55;;;22.60;99.90;;;;;;5030695;28;20109;-67
2022/08/07 06:27:20;;;;;;;2.80;2.60;;;22.80;99.90;;;;;;5028928;28;20058;-67
2022/08/07 06:29:46;;;;;;;6.00;2.63;;;;;;;;;;5030611;28;20026;-65
2022/08/07 06:32:12;;;;;;;3.72;2.30;;;;;;;;;;5030554;28;20061;-67
2022/08/07 06:34:38;;;;;;;2.95;2.20;;;;;;;;;;5030560;28;20014;-67
2022/08/07 06:37:05;;;;;;;4.43;2.42;;;;;;;;;;5030502;28;20022;-65
2022/08/07 06:39:31;;;;;;;7.22;2.80;;;;;;;;;;5029057;28;20489;-67
2022/08/07 06:42:02;;;;;;;4.10;2.78;;;;;;;;;;5030383;28;20044;-65
2022/08/07 06:44:29;;;;;;;3.65;2.60;;;23.10;99.90;;;;;;5029086;28;20021;-67
2022/08/07 06:46:55;;;;;;;4.07;2.25;;;23.30;99.90;;;;;;5029024;28;20030;-67
2022/08/07 06:49:21;;;;;;;8.27;2.50;;;23.20;99.90;;;;;;5028523;28;20032;-66
2022/08/07 06:51:47;;;;;;;3.97;2.40;;;23.30;99.90;;;;;;5030090;28;20366;-66
2022/08/07 06:54:16;;;;;;;5.30;2.53;;;23.30;99.90;;;;;;5030275;28;20032;-68
2022/08/07 06:56:46;;;;;;;3.95;2.42;;;23.40;99.90;;;;;;5030192;28;20045;-67
2022/08/07 06:59:18;;;;;;;2.30;2.10;;;23.50;99.90;;;;;;5030099;28;20029;-67
2022/08/07 07:01:46;;;;;;;5.93;2.55;;;23.60;99.90;;;;;;5029934;28;20025;-66
2022/08/07 07:04:12;;;;;;;4.00;2.70;;;23.60;99.90;;;;;;5030197;28;20094;-66
2022/08/07 07:06:38;;;;;;;4.60;2.60;;;23.70;99.90;;;;;;5030081;28;20060;-65
2022/08/07 07:09:22;;;;;;;3.92;2.95;;;23.90;99.90;;;;;;5030104;28;20410;-66
2022/08/07 07:12:26;;;;;;;4.15;2.50;;;24.00;99.90;;;;;;5028742;28;20029;-64
2022/08/07 07:15:10;;;;;;;5.97;2.88;;;24.10;99.90;;;;;;5044801;28;20174;-64
2022/08/07 07:17:36;;;;;;;4.63;2.95;;;;;;;;;;5029926;28;20057;-66
2022/08/07 07:20:06;;;;;;;5.38;3.53;;;;;;;;;;5031816;28;20418;-66
2022/08/07 07:22:33;;;;;;;6.53;3.40;;;;;;;;;;5032369;28;20384;-66
2022/08/07 07:25:01;;;;;;;4.93;2.70;;;24.30;99.90;;;;;;5033422;28;20017;-66
2022/08/07 07:27:32;;;;;;;3.35;3.03;;;24.70;99.90;;;;;;5032900;28;20427;-66
2022/08/07 07:30:00;;;;;;;7.20;2.90;;;;;;;;;;5033454;28;20025;-66
2022/08/07 07:32:30;;;;;;;9.85;3.00;;;24.80;99.90;;;;;;5033278;28;20353;-66
2022/08/07 07:34:59;;;;;;;4.35;2.42;;;25.00;99.90;;;;;;5033301;28;20021;-65
2022/08/07 07:37:27;;;;;;;2.92;2.58;;;25.00;99.90;;;;;;5031910;28;20049;-66
2022/08/07 07:39:58;;;;;;;3.08;2.40;;;25.00;99.90;;;;;;5032808;28;20137;-65
2022/08/07 07:42:25;;;;;;;8.70;3.15;;;25.00;99.90;;;;;;5031946;28;20026;-64
2022/08/07 07:44:52;;;;;;;3.67;3.13;;;25.10;99.90;;;;;;5031764;28;20030;-64
2022/08/07 07:47:20;;;;;;;5.47;2.80;;;25.20;99.90;;;;;;5032790;28;20033;-68
2022/08/07 07:49:48;;;;;;;10.00;3.33;;;;;;;;;;5033263;28;20112;-71
2022/08/07 07:52:15;;;;;;;2.70;2.50;;;;;;;;;;5030567;28;20090;-69
2022/08/07 07:54:42;;;;;;;2.92;2.70;;;;;;;;;;5077659;28;20104;-70
2022/08/07 07:57:09;;;;;;;4.38;2.83;;;;;;;;;;5032184;28;20021;-69
2022/08/07 07:59:37;;;;;;;6.22;3.10;;;25.20;99.90;;;;;;5032484;28;20029;-70
2022/08/07 08:02:05;;;;;;;4.63;3.05;;;25.60;99.90;;;;;;5031158;28;20034;-70
2022/08/07 08:04:34;;;;;;;2.80;2.45;;;25.60;99.90;;;;;;5032255;28;20026;-70
2022/08/07 08:07:01;;;;;;;2.58;2.42;;;25.80;99.90;;;;;;5032562;28;20018;-69
2022/08/07 08:09:28;;;;;;;3.08;2.78;;;25.90;99.90;;;;;;5031257;28;20026;-69
2022/08/07 08:11:55;;;;;;;6.93;2.55;;;25.90;99.90;;;;;;5031082;28;20046;-69
2022/08/07 08:14:21;;;;;;;4.85;2.58;;;26.00;99.90;;;;;;5031576;28;20025;-67
2022/08/07 08:16:50;;;;;;;3.22;2.92;;;26.00;99.90;;;;;;5031400;28;20014;-69
2022/08/07 08:19:19;;;;;;;5.40;2.53;;;26.10;99.90;;;;;;5032182;28;20140;-72
2022/08/07 08:27:32;;;;;;;4.38;2.70;;;26.50;99.90;;;;;;5031669;28;20095;-68
2022/08/07 08:30:07;;;;;;;4.07;2.70;;;26.60;99.90;;;;;;5031402;28;20124;-71
2022/08/07 08:32:53;;;;;;;3.30;2.92;;;26.60;99.90;;;;;;5031752;28;20081;-71
2022/08/07 08:35:25;;;;;;;3.60;3.03;;;26.80;99.90;;;;;;5032221;28;20096;-68
2022/08/07 08:37:56;;;;;;;3.05;2.78;;;27.00;99.90;;;;;;5031171;28;20419;-71
2022/08/07 08:41:03;;;;;;;4.68;2.60;;;27.10;99.90;;;;;;5030312;28;20365;-70
2022/08/07 08:43:55;;;;;;;8.77;2.50;;;27.30;99.90;;;;;;5032132;28;20113;-69
2022/08/07 08:46:47;;;;;;;6.43;2.92;;;27.30;99.90;;;;;;5035332;28;20112;-66
2022/08/07 08:49:30;;;;;;;2.97;2.67;;;27.50;99.90;;;;;;5032173;28;20044;-68
2022/08/07 08:52:23;;;;;;;2.58;2.38;;;27.40;99.90;;;;;;5028186;28;20047;-66
2022/08/07 08:55:12;;;;;;;6.68;2.63;;;27.30;99.90;;;;;;5031755;28;20018;-65
2022/08/07 08:57:53;;;;;;;3.67;3.35;;;27.40;99.90;;;;;;5031949;28;20026;-65
2022/08/07 09:00:22;;;;;;;4.40;2.55;;;27.40;99.90;;;;;;5030482;28;20037;-65
2022/08/07 09:03:09;;;;;;;3.90;2.90;;;27.50;99.90;;;;;;5031769;28;20032;-67
2022/08/07 09:05:50;;;;;;;8.48;3.70;;;27.50;99.90;;;;;;5031813;28;20102;-68
2022/08/07 09:08:35;;;;;;;;;;;27.80;99.90;;;;;;5032116;28;20057;-69
2022/08/07 09:11:28;;;;;;;3.00;2.80;;;27.90;99.90;;;;;;5030350;28;19905;-68
2022/08/07 09:14:19;;;;;;;4.97;3.10;;;28.00;99.90;;;;;;5031259;28;20173;-68
2022/08/07 09:17:03;;;;;;;9.32;3.15;;;28.30;99.90;;;;;;5031388;28;20354;-68
2022/08/07 09:19:41;;;;;;;9.57;3.05;;;28.30;99.70;;;;;;5030086;28;20425;-66
2022/08/07 09:22:10;;;;;;;8.50;3.50;;;28.40;99.70;;;;;;5030982;28;20021;-68
2022/08/07 09:24:43;;;;;;;4.75;2.80;;;28.30;99.10;;;;;;5031730;28;20022;-69
2022/08/07 09:27:21;;;;;;;6.13;2.85;;;28.40;99.50;;;;;;5031578;28;20054;-69
2022/08/07 09:29:55;;;;;;;4.70;2.75;;;28.70;99.10;;;;;;5031489;28;20026;-69
2022/08/07 09:32:52;;;;;;;6.10;2.75;;;29.00;98.40;;;;;;5031056;28;20021;-71
2022/08/07 09:35:55;;;;;;;4.22;2.80;;;28.90;98.40;;;;;;5031348;28;20096;-66
2022/08/07 09:38:46;;;;;;;2.83;2.60;;;28.90;98.40;;;;;;5029644;28;20029;-67
2022/08/07 09:41:34;;;;;;;4.63;3.03;;;29.10;97.70;;;;;;5029740;28;20017;-67
2022/08/07 09:44:26;;;;;;;5.90;2.92;;;29.30;98.10;;;;;;5031148;28;20029;-67
2022/08/07 09:47:14;;;;;;;5.40;2.72;;;29.60;97.70;;;;;;5030620;28;20482;-69
2022/08/07 09:49:58;;;;;;;4.28;3.05;;;29.70;96.80;;;;;;5051142;28;20022;-69
2022/08/07 09:52:36;;;;;;;8.10;3.35;;;29.80;96.90;;;;;;5027848;28;20014;-67
2022/08/07 09:55:17;;;;;;;12.77;3.65;;;29.40;96.50;;;;;;5026267;28;20021;-68
2022/08/07 09:58:03;;;;;;;4.25;2.90;;;29.60;96.50;;;;;;5027627;28;20457;-69
2022/08/07 10:00:55;;;;;;;5.40;3.13;;;29.80;96.10;;;;;;5093635;27;20042;-66
2022/08/07 10:04:08;;;;;;;26.75;4.20;;;29.90;95.90;;;;;;5134704;27;20053;-69
2022/08/07 10:06:52;;;;;;;4.40;2.70;;;30.00;95.90;;;;;;5030238;28;20466;-68
2022/08/07 10:09:30;;;;;;;9.13;3.05;;;30.20;95.50;;;;;;5030276;28;20526;-69
2022/08/07 10:11:59;;;;;;;8.30;3.20;;;30.20;95.00;;;;;;5030805;28;20468;-69
2022/08/07 10:14:44;;;;;;;7.88;2.78;;;30.40;94.90;;;;;;5030778;28;20028;-69
2022/08/07 10:17:47;;;;;;;5.57;2.90;;;30.30;94.80;;;;;;5030223;28;20017;-69
2022/08/07 10:20:27;;;;;;;9.82;3.10;;;30.40;94.70;;;;;;5028879;28;20030;-70
2022/08/07 10:23:29;;;;;;;3.30;2.97;;;30.70;94.10;;;;;;5029331;28;20049;-71
2022/08/07 10:26:22;;;;;;;4.90;2.75;;;31.00;94.30;;;;;;5075831;28;20385;-69
2022/08/07 10:29:25;;;;;;;6.32;2.83;;;31.20;94.10;;;;;;5113421;28;20031;-69
2022/08/07 10:32:20;;;;;;;3.33;2.88;;;31.10;93.10;;;;;;5113457;28;20027;-70
2022/08/07 10:35:04;;;;;;;9.20;3.17;;;31.10;93.00;;;;;;5113440;28;20043;-69
2022/08/07 10:38:05;;;;;;;3.15;2.95;;;32.00;92.20;;;;;;5113820;28;20031;-70
2022/08/07 10:40:41;;;;;;;4.50;2.53;;;32.00;91.70;;;;;;5113555;28;20019;-70
2022/08/07 10:43:20;;;;;;;5.00;2.97;;;32.40;91.30;;;;;;5113746;28;20024;-70
2022/08/07 10:45:54;;;;;;;3.97;3.33;;;33.10;90.50;;;;;;5113631;28;20032;-70
2022/08/07 10:48:57;;;;;;;3.40;3.05;;;33.50;90.50;;;;;;5113951;28;20207;-70
2022/08/07 10:51:45;;;;;;;3.20;3.00;;;34.10;87.60;;;;;;5113628;28;20027;-70
2022/08/07 10:54:29;;;;;;;3.45;3.10;;;34.10;86.60;;;;;;5113128;28;20034;-71
2022/08/07 10:57:07;;;;;;;3.70;2.75;;;34.70;86.00;;;;;;5113287;28;20035;-70
2022/08/07 10:59:51;;;;;;;3.63;2.63;;;35.60;95.50;;;;;;5113482;28;20031;-68
2022/08/07 11:02:36;;;;;;;4.25;3.10;;;35.20;96.90;;;;;;5113448;28;20459;-72
2022/08/07 11:05:12;;;;;;;7.40;3.40;;;34.60;94.40;;;;;;5113539;28;20032;-71
2022/08/07 11:08:09;;;;;;;6.30;3.20;;;34.80;94.10;;;;;;5113489;28;20061;-69
2022/08/07 11:10:51;;;;;;;4.95;2.78;;;;;;;;;;5113490;28;20113;-71
2022/08/07 11:13:25;;;;;;;6.95;3.67;;;36.00;79.40;;;;;;5113499;28;20016;-71
2022/08/07 11:15:54;;;;;;;5.90;2.85;;;36.00;79.00;;;;;;5095168;28;20020;-70
2022/08/07 11:18:33;;;;;;;6.90;2.85;;;36.50;76.70;;;;;;5112974;28;20027;-71
2022/08/07 11:21:38;;;;;;;5.97;2.80;;;36.30;76.60;;;;;;5095109;28;20123;-71
2022/08/07 11:24:40;;;;;;;7.90;2.85;;;36.80;76.20;;;;;;5113409;28;20098;-69
2022/08/07 11:27:30;;;;;;;4.25;2.83;;;36.30;75.30;;;;;;5042807;28;20031;-70
2022/08/07 11:30:06;;;;;;;7.07;3.03;;;36.60;74.80;;;;;;5093029;28;20068;-68
2022/08/07 11:32:53;;;;;;;3.22;2.95;;;36.50;74.50;;;;;;5092926;28;20024;-69
2022/08/07 11:35:23;;;;;;;3.20;2.90;;;37.30;74.40;;;;;;5074771;28;20372;-70
2022/08/07 11:38:16;;;;;;;3.45;2.65;;;37.20;73.30;;;;;;5092675;28;20409;-70
2022/08/07 11:40:59;;;;;;;9.77;3.45;;;38.20;73.20;;;;;;5092795;28;20036;-70
2022/08/07 11:43:31;;;;;;;3.60;2.80;;;38.30;71.70;;;;;;5092853;28;20036;-69
2022/08/07 11:46:20;;;;;;;6.13;3.03;;;38.00;71.20;;;;;;5092630;28;20024;-67
2022/08/07 11:49:17;;;;;;;5.57;2.92;;;37.70;71.10;;;;;;5093113;28;20449;-70
2022/08/07 11:52:00;;;;;;;4.03;2.97;;;37.90;70.80;;;;;;5092709;28;20051;-69
2022/08/07 11:54:28;;;;;;;6.20;2.97;;;38.50;70.10;;;;;;5093021;28;20542;-69
2022/08/07 11:57:19;;;;;;;5.13;3.92;;;38.60;69.10;;;;;;5090798;28;20352;-67
2022/08/07 12:00:04;;;;;;;3.45;2.75;;;39.30;68.10;;;;;;5072224;28;20032;-72
2022/08/07 12:02:59;;;;;;;4.85;2.75;;;39.20;68.00;;;;;;5072438;28;20135;-71
2022/08/07 12:05:33;;;;;;;5.38;3.15;;;39.00;67.30;;;;;;5073693;28;20067;-71
2022/08/07 12:08:07;;;;;;;5.07;2.88;;;39.50;66.40;;;;;;5081014;28;20012;-74
2022/08/07 12:10:56;;;;;;;3.58;2.72;;;39.70;66.90;;;;;;5077919;28;20122;-74
2022/08/07 12:13:43;;;;;;;5.70;3.00;;;39.80;66.50;;;;;;5096106;28;20456;-68
2022/08/07 12:16:17;;;;;;;3.25;2.80;;;40.30;65.80;;;;;;5096110;28;20020;-68
2022/08/07 12:19:06;;;;;;;2.83;2.63;;;40.80;84.10;;;;;;5095960;28;20024;-69
2022/08/07 12:21:42;;;;;;;4.47;3.20;;;39.50;67.90;;;;;;5095799;28;20032;-68
2022/08/07 12:24:33;;;;;;;4.82;2.70;;;40.60;63.80;;;;;;5077734;28;20024;-67
2022/08/07 12:26:59;;;;;;;;;;;41.60;62.20;;;;;;5096512;28;20028;-66
2022/08/07 12:29:34;;;;;;;6.50;3.08;;;41.50;62.60;;;;;;5095678;28;19907;-69
2022/08/07 12:32:07;;;;;;;3.53;2.92;;;;;;;;;;5095760;28;20016;-71
2022/08/07 12:34:37;;;;;;;3.83;3.10;;;41.60;61.10;;;;;;5095432;28;20028;-71
2022/08/07 12:37:05;;;;;;;6.57;3.10;;;41.60;61.60;;;;;;5095715;28;20054;-69
2022/08/07 12:39:34;;;;;;;5.60;2.90;;;42.40;59.80;;;;;;5095589;28;20728;-69
2022/08/07 12:42:00;;;;;;;2.80;2.60;;;42.70;60.30;;;;;;5094745;28;20115;-67
2022/08/07 12:44:28;;;;;;;5.82;3.10;;;41.60;59.90;;;;;;5095359;28;20023;-69
2022/08/07 12:47:31;;;;;;;6.85;3.20;;;41.20;60.80;;;;;;5095490;28;20020;-68
2022/08/07 12:50:29;;;;;;;6.63;3.42;;;40.90;60.80;;;;;;5095058;28;20023;-69
2022/08/07 12:53:16;;;;;;;4.82;3.05;;;41.80;60.20;;;;;;5094634;28;20460;-70
2022/08/07 12:56:01;;;;;;;3.47;3.08;;;;;;;;;;5076695;28;20030;-70
2022/08/07 12:58:33;;;;;;;7.97;3.53;;;42.10;58.80;;;;;;5095184;28;20066;-70
2022/08/07 13:01:23;;;;;;;3.53;3.20;;;42.10;59.30;;;;;;5077088;28;20079;-70
2022/08/07 13:04:23;;;;;;;3.03;2.80;;;42.70;59.80;;;;;;5076981;28;20027;-67
2022/08/07 13:07:12;;;;;;;6.10;3.25;;;;;;;;;;5094719;28;20020;-68
2022/08/07 13:10:07;;;;;;;7.18;2.90;;;43.00;58.10;;;;;;5056741;28;20056;-70
2022/08/07 13:13:04;;;;;;;4.93;3.00;;;43.90;57.90;;;;;;5090436;28;20040;-70
2022/08/07 13:15:32;;;;;;;6.18;3.28;;;42.40;58.00;;;;;;5094802;28;20028;-71
2022/08/07 13:18:19;;;;;;;7.43;3.15;;;42.10;58.20;;;;;;5094118;28;20063;-70
2022/08/07 13:20:51;;;;;;;6.93;3.63;;;42.60;57.90;;;;;;5094759;28;20028;-69
2022/08/07 13:23:31;;;;;;;3.25;2.90;;;43.70;56.70;;;;;;5094769;28;20016;-69
2022/08/07 13:26:30;;;;;;;9.10;3.10;;;43.70;56.40;;;;;;5106277;28;20403;-69
2022/08/07 13:29:22;;;;;;;10.43;2.97;;;44.20;56.50;;;;;;5081011;28;20161;-70
2022/08/07 13:31:53;;;;;;;2.97;2.72;;;43.60;56.00;;;;;;5114836;28;20103;-69
2022/08/07 13:34:44;;;;;;;5.13;3.10;;;45.00;56.20;;;;;;5096526;28;20102;-68
2022/08/07 13:37:42;;;;;;;4.75;3.22;;;44.60;55.10;;;;;;5114862;28;20069;-69
2022/08/07 13:40:54;;;;;;;3.25;2.97;;;43.10;55.90;;;;;;5114729;28;20050;-71
2022/08/07 13:43:21;;;;;;;4.47;2.88;;;42.90;56.20;;;;;;5109132;28;20089;-68